sensor_id;sensor_type;location;lat;lon;timestamp;pressure;altitude;pressure_sealevel;temperature;humidity
56456;BME280;42354;53.218;6.564;2023-03-15T00:01:24;46983.19;;;-142.92;85.65
56456;BME280;42354;53.218;6.564;2023-03-15T00:03:51;46979.06;;;-142.92;85.98
56456;BME280;42354;53.218;6.564;2023-03-15T00:06:19;46977.03;;;-142.92;86.41
56456;BME280;42354;53.218;6.564;2023-03-15T00:08:44;46974.97;;;-142.92;86.69
56456;BME280;42354;53.218;6.564;2023-03-15T00:11:12;46979.06;;;-142.92;87.15
56456;BME280;42354;53.218;6.564;2023-03-15T00:13:38;46962.66;;;-142.92;87.32
56456;BME280;42354;53.218;6.564;2023-03-15T00:16:04;46952.41;;;-142.92;87.48
56456;BME280;42354;53.218;6.564;2023-03-15T00:18:29;46995.50;;;-142.92;87.52
56456;BME280;42354;53.218;6.564;2023-03-15T00:20:55;46991.38;;;-142.92;87.73
56456;BME280;42354;53.218;6.564;2023-03-15T00:23:20;46964.72;;;-142.92;87.83
56456;BME280;42354;53.218;6.564;2023-03-15T00:25:47;46962.66;;;-142.92;87.97
56456;BME280;42354;53.218;6.564;2023-03-15T00:28:13;46974.97;;;-142.92;88.24
56456;BME280;42354;53.218;6.564;2023-03-15T00:30:39;46989.34;;;-142.92;88.42
56456;BME280;42354;53.218;6.564;2023-03-15T00:33:05;46987.28;;;-142.92;88.68
56456;BME280;42354;53.218;6.564;2023-03-15T00:35:31;46974.97;;;-142.92;89.05
56456;BME280;42354;53.218;6.564;2023-03-15T00:37:59;46974.97;;;-142.92;89.20
56456;BME280;42354;53.218;6.564;2023-03-15T00:40:25;46958.56;;;-142.92;89.26
56456;BME280;42354;53.218;6.564;2023-03-15T00:42:51;46958.56;;;-142.92;89.03
56456;BME280;42354;53.218;6.564;2023-03-15T00:45:18;46987.28;;;-142.92;89.19
56456;BME280;42354;53.218;6.564;2023-03-15T00:47:47;46974.97;;;-142.92;89.16
56456;BME280;42354;53.218;6.564;2023-03-15T00:50:13;46956.50;;;-142.92;89.15
56456;BME280;42354;53.218;6.564;2023-03-15T00:52:38;46968.81;;;-142.92;89.11
56456;BME280;42354;53.218;6.564;2023-03-15T00:55:10;46979.06;;;-142.92;89.15
56456;BME280;42354;53.218;6.564;2023-03-15T00:57:38;46979.06;;;-142.92;89.44
56456;BME280;42354;53.218;6.564;2023-03-15T01:00:06;46985.22;;;-142.92;89.18
56456;BME280;42354;53.218;6.564;2023-03-15T01:02:33;46954.44;;;-142.92;89.34
56456;BME280;42354;53.218;6.564;2023-03-15T01:04:58;46972.91;;;-142.92;89.81
56456;BME280;42354;53.218;6.564;2023-03-15T01:07:24;46964.72;;;-142.92;89.69
56456;BME280;42354;53.218;6.564;2023-03-15T01:09:49;46981.13;;;-142.92;89.04
56456;BME280;42354;53.218;6.564;2023-03-15T01:12:15;46983.19;;;-142.92;88.44
56456;BME280;42354;53.218;6.564;2023-03-15T01:14:40;46964.72;;;-142.92;88.32
56456;BME280;42354;53.218;6.564;2023-03-15T01:17:05;46983.19;;;-142.92;88.38
56456;BME280;42354;53.218;6.564;2023-03-15T01:19:31;46970.88;;;-142.92;88.41
56456;BME280;42354;53.218;6.564;2023-03-15T01:21:56;46966.75;;;-142.92;88.42
56456;BME280;42354;53.218;6.564;2023-03-15T01:24:25;46972.91;;;-142.92;88.66
56456;BME280;42354;53.218;6.564;2023-03-15T01:26:50;46983.19;;;-142.92;88.51
56456;BME280;42354;53.218;6.564;2023-03-15T01:29:17;46972.91;;;-142.92;88.50
56456;BME280;42354;53.218;6.564;2023-03-15T01:31:42;46970.88;;;-142.92;88.68
56456;BME280;42354;53.218;6.564;2023-03-15T01:34:08;46977.03;;;-142.92;88.42
56456;BME280;42354;53.218;6.564;2023-03-15T01:36:34;46981.13;;;-142.92;88.46
56456;BME280;42354;53.218;6.564;2023-03-15T01:38:59;46974.97;;;-142.92;88.60
56456;BME280;42354;53.218;6.564;2023-03-15T01:41:25;46987.28;;;-142.92;88.65
56456;BME280;42354;53.218;6.564;2023-03-15T01:43:52;46979.06;;;-142.92;88.24
56456;BME280;42354;53.218;6.564;2023-03-15T01:46:23;46972.91;;;-142.92;88.01
56456;BME280;42354;53.218;6.564;2023-03-15T01:51:46;46958.56;;;-142.92;88.12
56456;BME280;42354;53.218;6.564;2023-03-15T01:57:19;46972.91;;;-142.92;87.99
56456;BME280;42354;53.218;6.564;2023-03-15T02:00:09;46970.88;;;-142.92;88.36
56456;BME280;42354;53.218;6.564;2023-03-15T02:03:00;46970.88;;;-142.92;88.90
56456;BME280;42354;53.218;6.564;2023-03-15T02:05:26;46970.88;;;-142.92;89.06
56456;BME280;42354;53.218;6.564;2023-03-15T02:07:53;46966.75;;;-142.92;89.36
56456;BME280;42354;53.218;6.564;2023-03-15T02:10:25;46977.03;;;-142.92;89.53
56456;BME280;42354;53.218;6.564;2023-03-15T02:12:55;46958.56;;;-142.92;89.70
56456;BME280;42354;53.218;6.564;2023-03-15T02:15:21;46964.72;;;-142.92;89.65
56456;BME280;42354;53.218;6.564;2023-03-15T02:17:47;46968.81;;;-142.92;89.57
56456;BME280;42354;53.218;6.564;2023-03-15T02:22:59;46962.66;;;-142.92;89.29
56456;BME280;42354;53.218;6.564;2023-03-15T02:28:09;46974.97;;;-142.92;89.44
56456;BME280;42354;53.218;6.564;2023-03-15T02:30:36;46958.56;;;-142.92;89.21
56456;BME280;42354;53.218;6.564;2023-03-15T02:33:04;46974.97;;;-142.92;89.15
56456;BME280;42354;53.218;6.564;2023-03-15T02:35:32;46979.06;;;-142.92;89.23
56456;BME280;42354;53.218;6.564;2023-03-15T02:37:58;46974.97;;;-142.92;89.22
56456;BME280;42354;53.218;6.564;2023-03-15T02:40:25;46956.50;;;-142.92;89.58
56456;BME280;42354;53.218;6.564;2023-03-15T02:42:55;46974.97;;;-142.92;89.43
56456;BME280;42354;53.218;6.564;2023-03-15T02:45:22;46985.22;;;-142.92;89.36
56456;BME280;42354;53.218;6.564;2023-03-15T02:47:49;46985.22;;;-142.92;89.05
56456;BME280;42354;53.218;6.564;2023-03-15T02:50:15;46962.66;;;-142.92;88.71
56456;BME280;42354;53.218;6.564;2023-03-15T02:52:40;46962.66;;;-142.92;87.67
56456;BME280;42354;53.218;6.564;2023-03-15T02:55:06;46979.06;;;-142.92;86.87
56456;BME280;42354;53.218;6.564;2023-03-15T02:57:31;46972.91;;;-142.92;86.44
56456;BME280;42354;53.218;6.564;2023-03-15T02:59:57;46979.06;;;-142.92;85.67
56456;BME280;42354;53.218;6.564;2023-03-15T03:02:23;46983.19;;;-142.92;85.44
56456;BME280;42354;53.218;6.564;2023-03-15T03:04:48;46983.19;;;-142.92;84.83
56456;BME280;42354;53.218;6.564;2023-03-15T03:07:14;46989.34;;;-142.92;84.71
56456;BME280;42354;53.218;6.564;2023-03-15T03:09:40;46995.50;;;-142.92;84.72
56456;BME280;42354;53.218;6.564;2023-03-15T03:12:05;46979.06;;;-142.92;84.55
56456;BME280;42354;53.218;6.564;2023-03-15T03:14:31;46979.06;;;-142.92;84.27
56456;BME280;42354;53.218;6.564;2023-03-15T03:16:56;46970.88;;;-142.92;84.10
56456;BME280;42354;53.218;6.564;2023-03-15T03:19:22;46972.91;;;-142.92;84.23
56456;BME280;42354;53.218;6.564;2023-03-15T03:21:50;46966.75;;;-142.92;83.46
56456;BME280;42354;53.218;6.564;2023-03-15T03:24:18;46970.88;;;-142.92;83.39
56456;BME280;42354;53.218;6.564;2023-03-15T03:26:43;46970.88;;;-142.92;83.54
56456;BME280;42354;53.218;6.564;2023-03-15T03:29:10;46983.19;;;-142.92;83.61
56456;BME280;42354;53.218;6.564;2023-03-15T03:31:35;47007.81;;;-142.92;83.71
56456;BME280;42354;53.218;6.564;2023-03-15T03:34:01;46991.38;;;-142.92;83.86
56456;BME280;42354;53.218;6.564;2023-03-15T03:36:26;46993.44;;;-142.92;83.81
56456;BME280;42354;53.218;6.564;2023-03-15T03:38:52;46977.03;;;-142.92;83.88
56456;BME280;42354;53.218;6.564;2023-03-15T03:41:21;46970.88;;;-142.92;84.04
56456;BME280;42354;53.218;6.564;2023-03-15T03:43:46;46983.19;;;-142.92;84.16
56456;BME280;42354;53.218;6.564;2023-03-15T03:46:12;46993.44;;;-142.92;84.00
56456;BME280;42354;53.218;6.564;2023-03-15T03:48:37;46960.59;;;-142.92;83.84
56456;BME280;42354;53.218;6.564;2023-03-15T03:51:03;46966.75;;;-142.92;83.68
56456;BME280;42354;53.218;6.564;2023-03-15T03:53:28;46956.50;;;-142.92;83.67
56456;BME280;42354;53.218;6.564;2023-03-15T03:55:54;46987.28;;;-142.92;83.82
56456;BME280;42354;53.218;6.564;2023-03-15T03:58:20;46977.03;;;-142.92;83.94
56456;BME280;42354;53.218;6.564;2023-03-15T04:00:45;46985.22;;;-142.92;83.17
56456;BME280;42354;53.218;6.564;2023-03-15T04:03:11;46979.06;;;-142.92;82.88
56456;BME280;42354;53.218;6.564;2023-03-15T04:05:37;46968.81;;;-142.92;82.62
56456;BME280;42354;53.218;6.564;2023-03-15T04:08:03;46954.44;;;-142.92;81.94
56456;BME280;42354;53.218;6.564;2023-03-15T04:10:28;46942.13;;;-142.92;80.96
56456;BME280;42354;53.218;6.564;2023-03-15T04:12:59;46987.28;;;-142.92;80.41
56456;BME280;42354;53.218;6.564;2023-03-15T04:15:24;46968.81;;;-142.92;79.94
56456;BME280;42354;53.218;6.564;2023-03-15T04:17:50;46983.19;;;-142.92;79.08
56456;BME280;42354;53.218;6.564;2023-03-15T04:20:24;46974.97;;;-142.92;79.06
56456;BME280;42354;53.218;6.564;2023-03-15T04:22:49;46977.03;;;-142.92;78.98
56456;BME280;42354;53.218;6.564;2023-03-15T04:25:16;46972.91;;;-142.92;79.14
56456;BME280;42354;53.218;6.564;2023-03-15T04:27:41;46970.88;;;-142.92;79.38
56456;BME280;42354;53.218;6.564;2023-03-15T04:30:12;46979.06;;;-142.92;79.26
56456;BME280;42354;53.218;6.564;2023-03-15T04:32:38;46966.75;;;-142.92;79.63
56456;BME280;42354;53.218;6.564;2023-03-15T04:35:04;46962.66;;;-142.92;79.75
56456;BME280;42354;53.218;6.564;2023-03-15T04:37:29;46979.06;;;-142.92;80.01
56456;BME280;42354;53.218;6.564;2023-03-15T04:39:56;46968.81;;;-142.92;79.80
56456;BME280;42354;53.218;6.564;2023-03-15T04:42:22;46970.88;;;-142.92;79.87
56456;BME280;42354;53.218;6.564;2023-03-15T04:44:50;46962.66;;;-142.92;79.90
56456;BME280;42354;53.218;6.564;2023-03-15T04:47:15;46977.03;;;-142.92;79.90
56456;BME280;42354;53.218;6.564;2023-03-15T04:49:41;46950.34;;;-142.92;80.29
56456;BME280;42354;53.218;6.564;2023-03-15T04:52:06;46958.56;;;-142.92;80.34
56456;BME280;42354;53.218;6.564;2023-03-15T04:54:32;46952.41;;;-142.92;80.49
56456;BME280;42354;53.218;6.564;2023-03-15T04:56:57;46997.53;;;-142.92;80.41
56456;BME280;42354;53.218;6.564;2023-03-15T04:59:22;46974.97;;;-142.92;80.21
56456;BME280;42354;53.218;6.564;2023-03-15T05:01:48;46974.97;;;-142.92;80.21
56456;BME280;42354;53.218;6.564;2023-03-15T05:04:13;46981.13;;;-142.92;80.41
56456;BME280;42354;53.218;6.564;2023-03-15T05:06:39;46985.22;;;-142.92;80.67
56456;BME280;42354;53.218;6.564;2023-03-15T05:09:04;46960.59;;;-142.92;80.55
56456;BME280;42354;53.218;6.564;2023-03-15T05:11:30;46960.59;;;-142.92;80.41
56456;BME280;42354;53.218;6.564;2023-03-15T05:13:55;46985.22;;;-142.92;80.42
56456;BME280;42354;53.218;6.564;2023-03-15T05:16:21;46977.03;;;-142.92;80.72
56456;BME280;42354;53.218;6.564;2023-03-15T05:18:46;46966.75;;;-142.92;80.78
56456;BME280;42354;53.218;6.564;2023-03-15T05:21:12;46970.88;;;-142.92;81.21
56456;BME280;42354;53.218;6.564;2023-03-15T05:23:38;46981.13;;;-142.92;81.29
56456;BME280;42354;53.218;6.564;2023-03-15T05:26:03;46974.97;;;-142.92;81.50
56456;BME280;42354;53.218;6.564;2023-03-15T05:28:29;46956.50;;;-142.92;81.63
56456;BME280;42354;53.218;6.564;2023-03-15T05:30:56;46948.28;;;-142.92;81.74
56456;BME280;42354;53.218;6.564;2023-03-15T05:33:22;46958.56;;;-142.92;81.67
56456;BME280;42354;53.218;6.564;2023-03-15T05:35:49;46970.88;;;-142.92;81.76
56456;BME280;42354;53.218;6.564;2023-03-15T05:38:15;46966.75;;;-142.92;82.07
56456;BME280;42354;53.218;6.564;2023-03-15T05:40:44;46962.66;;;-142.92;82.14
56456;BME280;42354;53.218;6.564;2023-03-15T05:43:10;46966.75;;;-142.92;82.29
56456;BME280;42354;53.218;6.564;2023-03-15T05:45:36;46974.97;;;-142.92;82.57
56456;BME280;42354;53.218;6.564;2023-03-15T05:48:02;46970.88;;;-142.92;82.77
56456;BME280;42354;53.218;6.564;2023-03-15T05:50:28;46960.59;;;-142.92;82.92
56456;BME280;42354;53.218;6.564;2023-03-15T05:52:55;46958.56;;;-142.92;82.97
56456;BME280;42354;53.218;6.564;2023-03-15T05:55:21;46952.41;;;-142.92;83.44
56456;BME280;42354;53.218;6.564;2023-03-15T05:57:47;46966.75;;;-142.92;83.82
56456;BME280;42354;53.218;6.564;2023-03-15T06:00:13;46962.66;;;-142.92;84.69
56456;BME280;42354;53.218;6.564;2023-03-15T06:02:43;46972.91;;;-142.92;84.76
56456;BME280;42354;53.218;6.564;2023-03-15T06:05:09;46970.88;;;-142.92;85.26
56456;BME280;42354;53.218;6.564;2023-03-15T06:07:35;46972.91;;;-142.92;85.83
56456;BME280;42354;53.218;6.564;2023-03-15T06:10:01;46970.88;;;-142.92;86.13
56456;BME280;42354;53.218;6.564;2023-03-15T06:12:27;46972.91;;;-142.92;86.27
56456;BME280;42354;53.218;6.564;2023-03-15T06:14:52;46972.91;;;-142.92;86.95
56456;BME280;42354;53.218;6.564;2023-03-15T06:17:18;46979.06;;;-142.92;86.96
56456;BME280;42354;53.218;6.564;2023-03-15T06:19:43;46974.97;;;-142.92;87.46
56456;BME280;42354;53.218;6.564;2023-03-15T06:22:09;46962.66;;;-142.92;87.54
56456;BME280;42354;53.218;6.564;2023-03-15T06:24:35;46970.88;;;-142.92;87.75
56456;BME280;42354;53.218;6.564;2023-03-15T06:27:00;46972.91;;;-142.92;88.01
56456;BME280;42354;53.218;6.564;2023-03-15T06:29:26;46977.03;;;-142.92;88.36
56456;BME280;42354;53.218;6.564;2023-03-15T06:31:51;46979.06;;;-142.92;88.42
56456;BME280;42354;53.218;6.564;2023-03-15T06:34:18;46993.44;;;-142.92;88.48
56456;BME280;42354;53.218;6.564;2023-03-15T06:36:44;46974.97;;;-142.92;88.44
56456;BME280;42354;53.218;6.564;2023-03-15T06:39:10;46974.97;;;-142.92;88.66
56456;BME280;42354;53.218;6.564;2023-03-15T06:41:36;46958.56;;;-142.92;88.77
56456;BME280;42354;53.218;6.564;2023-03-15T06:44:02;46960.59;;;-142.92;88.65
56456;BME280;42354;53.218;6.564;2023-03-15T06:46:28;46970.88;;;-142.92;88.88
56456;BME280;42354;53.218;6.564;2023-03-15T06:48:54;46964.72;;;-142.92;88.75
56456;BME280;42354;53.218;6.564;2023-03-15T06:51:19;46979.06;;;-142.92;88.77
56456;BME280;42354;53.218;6.564;2023-03-15T06:53:45;46954.44;;;-142.92;88.61
56456;BME280;42354;53.218;6.564;2023-03-15T06:56:10;46948.28;;;-142.92;88.89
56456;BME280;42354;53.218;6.564;2023-03-15T06:58:36;46970.88;;;-142.92;88.53
56456;BME280;42354;53.218;6.564;2023-03-15T07:01:01;46979.06;;;-142.92;88.80
56456;BME280;42354;53.218;6.564;2023-03-15T07:03:27;46985.22;;;-142.92;88.76
56456;BME280;42354;53.218;6.564;2023-03-15T07:05:52;46966.75;;;-142.92;88.48
56456;BME280;42354;53.218;6.564;2023-03-15T07:08:23;46968.81;;;-142.92;88.59
56456;BME280;42354;53.218;6.564;2023-03-15T07:10:49;46970.88;;;-142.92;88.67
56456;BME280;42354;53.218;6.564;2023-03-15T07:13:15;46966.75;;;-142.92;88.50
56456;BME280;42354;53.218;6.564;2023-03-15T07:15:41;46983.19;;;-142.92;88.37
56456;BME280;42354;53.218;6.564;2023-03-15T07:18:07;46970.88;;;-142.92;88.38
56456;BME280;42354;53.218;6.564;2023-03-15T07:20:32;46964.72;;;-142.92;88.21
56456;BME280;42354;53.218;6.564;2023-03-15T07:22:58;46968.81;;;-142.92;87.62
56456;BME280;42354;53.218;6.564;2023-03-15T07:25:23;46995.50;;;-142.92;86.88
56456;BME280;42354;53.218;6.564;2023-03-15T07:27:51;46972.91;;;-142.92;86.65
56456;BME280;42354;53.218;6.564;2023-03-15T07:30:17;46966.75;;;-142.92;86.13
56456;BME280;42354;53.218;6.564;2023-03-15T07:32:43;46970.88;;;-142.92;86.04
56456;BME280;42354;53.218;6.564;2023-03-15T07:35:09;46979.06;;;-142.92;85.94
56456;BME280;42354;53.218;6.564;2023-03-15T07:37:34;46970.88;;;-142.92;85.63
56456;BME280;42354;53.218;6.564;2023-03-15T07:40:00;46960.59;;;-142.92;85.51
56456;BME280;42354;53.218;6.564;2023-03-15T07:42:36;46987.28;;;-142.92;84.99
56456;BME280;42354;53.218;6.564;2023-03-15T07:45:03;46991.38;;;-142.92;84.28
56456;BME280;42354;53.218;6.564;2023-03-15T07:47:29;46985.22;;;-142.92;83.92
56456;BME280;42354;53.218;6.564;2023-03-15T07:49:54;46987.28;;;-142.92;83.90
56456;BME280;42354;53.218;6.564;2023-03-15T07:52:20;46987.28;;;-142.92;84.00
56456;BME280;42354;53.218;6.564;2023-03-15T07:54:46;46991.38;;;-142.92;83.56
56456;BME280;42354;53.218;6.564;2023-03-15T07:57:12;46970.88;;;-142.92;83.27
56456;BME280;42354;53.218;6.564;2023-03-15T07:59:37;46981.13;;;-142.92;83.02
56456;BME280;42354;53.218;6.564;2023-03-15T08:02:03;46966.75;;;-142.92;82.62
56456;BME280;42354;53.218;6.564;2023-03-15T08:04:29;46995.50;;;-142.92;82.21
56456;BME280;42354;53.218;6.564;2023-03-15T08:06:54;46989.34;;;-142.92;81.21
56456;BME280;42354;53.218;6.564;2023-03-15T08:09:20;46983.19;;;-142.92;80.56
56456;BME280;42354;53.218;6.564;2023-03-15T08:11:47;46987.28;;;-142.92;78.70
56456;BME280;42354;53.218;6.564;2023-03-15T08:14:12;46993.44;;;-142.92;77.96
56456;BME280;42354;53.218;6.564;2023-03-15T08:16:38;46977.03;;;-142.92;78.34
56456;BME280;42354;53.218;6.564;2023-03-15T08:19:03;46985.22;;;-142.92;78.64
56456;BME280;42354;53.218;6.564;2023-03-15T08:21:28;46987.28;;;-142.92;78.84
56456;BME280;42354;53.218;6.564;2023-03-15T08:23:54;46983.19;;;-142.92;78.69
56456;BME280;42354;53.218;6.564;2023-03-15T08:26:19;46974.97;;;-142.92;79.46
56456;BME280;42354;53.218;6.564;2023-03-15T08:28:44;46979.06;;;-142.92;79.18
56456;BME280;42354;53.218;6.564;2023-03-15T08:31:10;46991.38;;;-142.92;78.52
56456;BME280;42354;53.218;6.564;2023-03-15T08:33:38;47005.75;;;-142.92;77.26
56456;BME280;42354;53.218;6.564;2023-03-15T08:36:04;47003.69;;;-142.92;77.01
56456;BME280;42354;53.218;6.564;2023-03-15T08:38:29;46991.38;;;-142.92;75.97
56456;BME280;42354;53.218;6.564;2023-03-15T08:40:58;46966.75;;;-142.92;75.20
56456;BME280;42354;53.218;6.564;2023-03-15T08:43:23;46987.28;;;-142.92;74.11
56456;BME280;42354;53.218;6.564;2023-03-15T08:45:49;46987.28;;;-142.92;72.14
56456;BME280;42354;53.218;6.564;2023-03-15T08:48:15;46991.38;;;-142.92;70.88
56456;BME280;42354;53.218;6.564;2023-03-15T08:50:41;47001.66;;;-142.92;69.56
56456;BME280;42354;53.218;6.564;2023-03-15T08:53:07;46987.28;;;-142.92;68.49
56456;BME280;42354;53.218;6.564;2023-03-15T08:55:33;46999.59;;;-142.92;68.09
56456;BME280;42354;53.218;6.564;2023-03-15T08:57:58;46991.38;;;-142.92;65.70
56456;BME280;42354;53.218;6.564;2023-03-15T09:00:26;46989.34;;;-142.92;64.97
56456;BME280;42354;53.218;6.564;2023-03-15T09:02:52;46987.28;;;-142.92;64.33
56456;BME280;42354;53.218;6.564;2023-03-15T09:05:19;46964.72;;;-142.92;64.04
56456;BME280;42354;53.218;6.564;2023-03-15T09:07:45;46989.34;;;-142.92;63.43
56456;BME280;42354;53.218;6.564;2023-03-15T09:10:12;46991.38;;;-142.92;62.38
56456;BME280;42354;53.218;6.564;2023-03-15T09:12:40;47007.81;;;-142.92;61.36
56456;BME280;42354;53.218;6.564;2023-03-15T09:15:06;47003.69;;;-142.92;62.47
56456;BME280;42354;53.218;6.564;2023-03-15T09:17:32;47009.84;;;-142.92;62.88
56456;BME280;42354;53.218;6.564;2023-03-15T09:19:57;46987.28;;;-142.92;59.33
56456;BME280;42354;53.218;6.564;2023-03-15T09:22:23;46987.28;;;-142.92;58.33
56456;BME280;42354;53.218;6.564;2023-03-15T09:24:48;47007.81;;;-142.92;57.29
56456;BME280;42354;53.218;6.564;2023-03-15T09:27:14;46989.34;;;-142.92;56.87
56456;BME280;42354;53.218;6.564;2023-03-15T09:29:39;46995.50;;;-142.92;58.23
56456;BME280;42354;53.218;6.564;2023-03-15T09:32:05;46987.28;;;-142.92;57.86
56456;BME280;42354;53.218;6.564;2023-03-15T09:34:30;46993.44;;;-142.92;55.00
56456;BME280;42354;53.218;6.564;2023-03-15T09:36:55;46987.28;;;-142.92;52.87
56456;BME280;42354;53.218;6.564;2023-03-15T09:39:21;47005.75;;;-142.92;50.28
56456;BME280;42354;53.218;6.564;2023-03-15T09:41:53;46981.13;;;-142.92;51.54
56456;BME280;42354;53.218;6.564;2023-03-15T09:47:00;46974.97;;;-142.92;51.22
56456;BME280;42354;53.218;6.564;2023-03-15T09:49:38;46999.59;;;-142.92;50.29
56456;BME280;42354;53.218;6.564;2023-03-15T09:54:50;47009.84;;;-142.92;51.73
56456;BME280;42354;53.218;6.564;2023-03-15T09:57:22;46987.28;;;-142.92;48.09
56456;BME280;42354;53.218;6.564;2023-03-15T09:59:51;46991.38;;;-142.92;46.87
56456;BME280;42354;53.218;6.564;2023-03-15T10:02:29;46999.59;;;-142.92;47.19
56456;BME280;42354;53.218;6.564;2023-03-15T10:05:00;46987.28;;;-142.92;46.72
56456;BME280;42354;53.218;6.564;2023-03-15T10:07:28;46991.38;;;-142.92;46.73
56456;BME280;42354;53.218;6.564;2023-03-15T10:09:54;46997.53;;;-142.92;46.16
56456;BME280;42354;53.218;6.564;2023-03-15T10:12:45;46995.50;;;-142.92;46.30
56456;BME280;42354;53.218;6.564;2023-03-15T10:20:28;47016.00;;;-142.92;44.02
56456;BME280;42354;53.218;6.564;2023-03-15T10:23:05;46995.50;;;-142.92;44.12
56456;BME280;42354;53.218;6.564;2023-03-15T10:25:36;46987.28;;;-142.92;43.75
56456;BME280;42354;53.218;6.564;2023-03-15T10:28:12;46983.19;;;-142.92;43.60
56456;BME280;42354;53.218;6.564;2023-03-15T10:30:39;47007.81;;;-142.92;43.92
56456;BME280;42354;53.218;6.564;2023-03-15T10:33:15;46997.53;;;-142.92;45.53
56456;BME280;42354;53.218;6.564;2023-03-15T10:35:46;46985.22;;;-142.92;45.89
56456;BME280;42354;53.218;6.564;2023-03-15T10:38:19;47003.69;;;-142.92;46.91
56456;BME280;42354;53.218;6.564;2023-03-15T10:40:47;47001.66;;;-142.92;47.08
56456;BME280;42354;53.218;6.564;2023-03-15T10:45:41;46993.44;;;-142.92;42.83
56456;BME280;42354;53.218;6.564;2023-03-15T10:48:07;47001.66;;;-142.92;44.05
56456;BME280;42354;53.218;6.564;2023-03-15T10:50:32;47007.81;;;-142.92;44.05
56456;BME280;42354;53.218;6.564;2023-03-15T10:53:08;46997.53;;;-142.92;43.64
56456;BME280;42354;53.218;6.564;2023-03-15T10:55:41;46989.34;;;-142.92;42.71
56456;BME280;42354;53.218;6.564;2023-03-15T10:58:25;46999.59;;;-142.92;42.02
56456;BME280;42354;53.218;6.564;2023-03-15T11:01:02;46979.06;;;-142.92;42.60
56456;BME280;42354;53.218;6.564;2023-03-15T11:03:28;46987.28;;;-142.92;43.78
56456;BME280;42354;53.218;6.564;2023-03-15T11:05:56;47028.31;;;-142.92;44.32
56456;BME280;42354;53.218;6.564;2023-03-15T11:08:24;46991.38;;;-142.92;44.94
56456;BME280;42354;53.218;6.564;2023-03-15T11:10:59;46974.97;;;-142.92;45.36
56456;BME280;42354;53.218;6.564;2023-03-15T11:15:58;46991.38;;;-142.92;43.11
56456;BME280;42354;53.218;6.564;2023-03-15T11:18:50;47001.66;;;-142.92;41.62
56456;BME280;42354;53.218;6.564;2023-03-15T11:21:15;46999.59;;;-142.92;42.86
56456;BME280;42354;53.218;6.564;2023-03-15T11:23:46;46979.06;;;-142.92;41.19
56456;BME280;42354;53.218;6.564;2023-03-15T11:26:17;47018.06;;;-142.92;42.34
56456;BME280;42354;53.218;6.564;2023-03-15T11:28:48;46979.06;;;-142.92;42.59
56456;BME280;42354;53.218;6.564;2023-03-15T11:31:15;47005.75;;;-142.92;42.56
56456;BME280;42354;53.218;6.564;2023-03-15T11:33:59;46995.50;;;-142.92;42.31
56456;BME280;42354;53.218;6.564;2023-03-15T11:36:31;46991.38;;;-142.92;41.19
56456;BME280;42354;53.218;6.564;2023-03-15T11:38:59;47005.75;;;-142.92;41.92
56456;BME280;42354;53.218;6.564;2023-03-15T11:41:55;47009.84;;;-142.92;41.68
56456;BME280;42354;53.218;6.564;2023-03-15T11:50:14;46991.38;;;-142.92;41.00
56456;BME280;42354;53.218;6.564;2023-03-15T11:52:40;46987.28;;;-142.92;39.17
56456;BME280;42354;53.218;6.564;2023-03-15T11:55:15;47013.97;;;-142.92;38.37
56456;BME280;42354;53.218;6.564;2023-03-15T11:57:45;47005.75;;;-142.92;38.91
56456;BME280;42354;53.218;6.564;2023-03-15T12:02:58;47001.66;;;-142.92;38.94
56456;BME280;42354;53.218;6.564;2023-03-15T12:05:48;47011.91;;;-142.92;39.69
56456;BME280;42354;53.218;6.564;2023-03-15T12:10:47;47005.75;;;-142.92;38.16
56456;BME280;42354;53.218;6.564;2023-03-15T12:13:28;46991.38;;;-142.92;38.22
56456;BME280;42354;53.218;6.564;2023-03-15T12:15:54;46987.28;;;-142.92;36.63
56456;BME280;42354;53.218;6.564;2023-03-15T12:18:24;47007.81;;;-142.92;36.99
56456;BME280;42354;53.218;6.564;2023-03-15T12:21:09;46993.44;;;-142.92;37.56
56456;BME280;42354;53.218;6.564;2023-03-15T12:26:06;46981.13;;;-142.92;36.52
56456;BME280;42354;53.218;6.564;2023-03-15T12:28:38;46995.50;;;-142.92;36.12
56456;BME280;42354;53.218;6.564;2023-03-15T12:31:08;46995.50;;;-142.92;36.12
56456;BME280;42354;53.218;6.564;2023-03-15T12:33:50;46995.50;;;-142.92;36.58
56456;BME280;42354;53.218;6.564;2023-03-15T12:36:34;47007.81;;;-142.92;36.77
56456;BME280;42354;53.218;6.564;2023-03-15T12:39:34;47024.22;;;-142.92;37.00
56456;BME280;42354;53.218;6.564;2023-03-15T12:42:01;46991.38;;;-142.92;37.48
56456;BME280;42354;53.218;6.564;2023-03-15T12:47:00;47001.66;;;-142.92;37.67
56456;BME280;42354;53.218;6.564;2023-03-15T12:49:30;46987.28;;;-142.92;38.01
56456;BME280;42354;53.218;6.564;2023-03-15T12:52:02;46989.34;;;-142.92;36.99
56456;BME280;42354;53.218;6.564;2023-03-15T12:57:10;46995.50;;;-142.92;36.62
56456;BME280;42354;53.218;6.564;2023-03-15T12:59:55;47009.84;;;-142.92;36.31
56456;BME280;42354;53.218;6.564;2023-03-15T13:02:27;46983.19;;;-142.92;35.69
56456;BME280;42354;53.218;6.564;2023-03-15T13:05:21;46987.28;;;-142.92;36.06
56456;BME280;42354;53.218;6.564;2023-03-15T13:07:54;46987.28;;;-142.92;36.54
56456;BME280;42354;53.218;6.564;2023-03-15T13:13:39;46974.97;;;-142.92;36.59
56456;BME280;42354;53.218;6.564;2023-03-15T13:16:18;46981.13;;;-142.92;36.75
56456;BME280;42354;53.218;6.564;2023-03-15T13:25:06;46983.19;;;-142.92;36.52
56456;BME280;42354;53.218;6.564;2023-03-15T13:27:59;46997.53;;;-142.92;36.66
56456;BME280;42354;53.218;6.564;2023-03-15T13:30:34;46999.59;;;-142.92;36.85
56456;BME280;42354;53.218;6.564;2023-03-15T13:33:04;46995.50;;;-142.92;35.73
56456;BME280;42354;53.218;6.564;2023-03-15T13:35:30;46981.13;;;-142.92;36.12
56456;BME280;42354;53.218;6.564;2023-03-15T13:38:06;46993.44;;;-142.92;36.62
56456;BME280;42354;53.218;6.564;2023-03-15T13:40:31;46999.59;;;-142.92;37.13